createdAt,value
2023-03-30T00:00:35.012Z,100140.59
2023-03-30T00:05:38.143Z,100137.06
2023-03-30T00:10:40.963Z,100120.22
2023-03-30T00:15:42.597Z,100113.13
2023-03-30T00:20:45.219Z,100098.25
2023-03-30T00:25:47.189Z,100090.16
2023-03-30T00:30:49.475Z,100095.56
2023-03-30T00:35:58.412Z,100092.94
2023-03-30T00:41:02.229Z,100092.16
2023-03-30T00:46:04.603Z,100090.34
2023-03-30T00:51:10.367Z,100079.56
2023-03-30T00:56:16.553Z,100093.84
2023-03-30T01:01:25.908Z,100090.56
2023-03-30T01:06:30.291Z,100089.03
2023-03-30T01:11:31.953Z,100080.13
2023-03-30T01:16:45.765Z,100086.03
2023-03-30T01:22:06.803Z,100075.44
2023-03-30T01:27:33.390Z,100082.63
2023-03-30T01:32:55.462Z,100075.06
2023-03-30T01:38:27.441Z,100062.59
2023-03-30T01:43:45.827Z,100053.97
2023-03-30T01:48:56.660Z,100067.97
2023-03-30T01:54:12.944Z,100074.50
2023-03-30T01:59:39.760Z,100072.22
2023-03-30T02:04:45.601Z,100070.63
2023-03-30T02:09:50.975Z,100070.84
2023-03-30T02:14:56.344Z,100063.88
2023-03-30T02:19:59.364Z,100052.38
2023-03-30T02:25:01.441Z,100055.16
2023-03-30T02:30:04.009Z,100063.59
2023-03-30T02:35:26.607Z,100047.97
2023-03-30T02:41:02.781Z,100052.38
2023-03-30T02:46:46.954Z,100063.44
2023-03-30T02:51:54.319Z,100059.59
2023-03-30T02:57:23.774Z,100052.25
2023-03-30T03:02:34.397Z,100054.13
2023-03-30T03:07:49.787Z,100056.69
2023-03-30T03:12:52.352Z,100037.69
2023-03-30T03:17:55.827Z,100046.81
2023-03-30T03:22:57.940Z,100030.94
2023-03-30T03:27:59.775Z,100023.75
2023-03-30T03:33:08.200Z,100021.00
2023-03-30T03:38:10.789Z,100015.72
2023-03-30T03:43:12.663Z,100011.50
2023-03-30T03:48:15.959Z,100007.94
2023-03-30T03:53:24.738Z,100014.38
2023-03-30T03:58:29.987Z,99993.41
2023-03-30T04:03:32.115Z,99989.13
2023-03-30T04:08:55.002Z,99993.41
2023-03-30T04:14:16.796Z,99984.13
2023-03-30T04:19:44.045Z,99984.72
2023-03-30T04:25:15.193Z,99982.13
2023-03-30T04:30:48.999Z,99970.22
2023-03-30T04:36:17.889Z,99978.44
2023-03-30T04:41:46.004Z,99978.84
2023-03-30T04:47:04.197Z,99990.06
2023-03-30T04:52:25.269Z,99983.94
2023-03-30T04:57:47.163Z,99962.63
2023-03-30T05:03:09.278Z,99951.78
2023-03-30T05:08:41.784Z,99957.56
2023-03-30T05:14:03.014Z,99943.59
2023-03-30T05:19:27.959Z,99961.28
2023-03-30T05:24:58.840Z,99960.69
2023-03-30T05:30:20.740Z,99948.53
2023-03-30T05:35:41.003Z,99941.06
2023-03-30T05:41:05.184Z,99933.47
2023-03-30T05:46:39.975Z,99915.88
2023-03-30T05:52:04.340Z,99942.63
2023-03-30T05:57:36.748Z,99951.13
2023-03-30T06:02:52.589Z,99931.84
2023-03-30T06:07:57.924Z,99916.28
2023-03-30T06:12:59.675Z,99910.19
2023-03-30T06:18:19.409Z,99929.44
2023-03-30T06:23:30.455Z,99929.81
2023-03-30T06:28:45.608Z,99909.56
2023-03-30T06:33:47.724Z,99915.94
2023-03-30T06:38:49.760Z,99901.16
2023-03-30T06:43:52.666Z,99905.22
2023-03-30T06:48:55.477Z,99896.63
2023-03-30T06:54:41.428Z,99901.19
2023-03-30T06:59:44.081Z,99907.16
2023-03-30T07:04:54.813Z,99904.63
2023-03-30T07:10:10.846Z,99903.88
2023-03-30T07:15:16.722Z,99904.69
2023-03-30T07:20:28.070Z,99890.69
2023-03-30T07:25:49.031Z,99894.41
2023-03-30T07:31:09.177Z,99897.13
2023-03-30T07:36:14.186Z,99897.50
2023-03-30T07:41:16.458Z,99894.66
2023-03-30T07:46:28.910Z,99884.38
2023-03-30T07:51:31.045Z,99876.63
2023-03-30T07:56:39.768Z,99882.84
2023-03-30T08:01:42.103Z,99884.19
2023-03-30T08:07:01.423Z,99882.69
2023-03-30T08:12:03.618Z,99881.34
2023-03-30T08:17:05.258Z,99880.72
2023-03-30T08:22:07.082Z,99887.56
2023-03-30T08:27:09.115Z,99904.63
2023-03-30T08:32:10.846Z,99917.50
2023-03-30T08:37:12.529Z,99913.28
2023-03-30T08:42:58.946Z,99894.97
2023-03-30T08:48:01.251Z,99869.94
2023-03-30T08:53:07.879Z,99853.19
2023-03-30T08:58:21.926Z,99839.66
2023-03-30T09:03:42.925Z,99839.72
2023-03-30T09:08:45.012Z,99830.44
2023-03-30T09:13:49.207Z,99833.00
2023-03-30T09:18:56.410Z,99840.69
2023-03-30T09:24:00.807Z,99826.38
2023-03-30T09:29:30.683Z,99817.97
2023-03-30T09:34:49.366Z,99813.72
2023-03-30T09:39:51.071Z,99813.63
2023-03-30T09:44:52.784Z,99800.94
2023-03-30T09:50:02.685Z,99798.31
2023-03-30T09:55:22.466Z,99795.84
2023-03-30T10:00:34.327Z,99788.97
2023-03-30T10:05:37.836Z,99794.88
2023-03-30T10:10:41.043Z,99786.38
2023-03-30T10:15:46.144Z,99782.16
2023-03-30T10:20:54.571Z,99775.41
2023-03-30T10:26:02.449Z,99755.19
2023-03-30T10:31:14.262Z,99745.13
2023-03-30T10:36:19.127Z,99734.16
2023-03-30T10:41:23.744Z,99732.41
2023-03-30T10:46:26.700Z,99730.66
2023-03-30T10:51:37.522Z,99721.47
2023-03-30T10:56:51.436Z,99697.97
2023-03-30T11:02:17.964Z,99688.75
2023-03-30T11:07:41.909Z,99674.53
2023-03-30T11:12:53.819Z,99662.81
2023-03-30T11:18:18.653Z,99677.84
2023-03-30T11:23:28.178Z,99672.72
2023-03-30T11:28:32.827Z,99672.81
2023-03-30T11:34:00.693Z,99655.19
2023-03-30T11:39:04.764Z,99661.13
2023-03-30T11:44:10.712Z,99658.47
2023-03-30T11:49:29.244Z,99664.34
2023-03-30T11:55:07.109Z,99642.38
2023-03-30T12:00:41.704Z,99630.66
2023-03-30T12:05:52.844Z,99616.34
2023-03-30T12:11:20.576Z,99596.88
2023-03-30T12:16:41.214Z,99564.88
2023-03-30T12:21:52.317Z,99541.84
2023-03-30T12:27:05.432Z,99531.94
2023-03-30T12:32:28.435Z,99514.44
2023-03-30T12:37:38.106Z,99472.56
2023-03-30T12:42:54.346Z,99483.56
2023-03-30T12:48:20.737Z,99475.81
2023-03-30T12:53:38.259Z,99466.53
2023-03-30T12:59:25.519Z,99433.59
2023-03-30T13:04:33.151Z,99434.72
2023-03-30T13:09:59.910Z,99428.78
2023-03-30T13:15:26.683Z,99431.47
2023-03-30T13:20:35.095Z,99435.00
2023-03-30T13:25:37.430Z,99408.00
2023-03-30T13:30:39.983Z,99397.13
2023-03-30T13:36:00.659Z,99397.31
2023-03-30T13:41:11.208Z,99416.50
2023-03-30T13:46:51.801Z,99411.41
2023-03-30T13:52:01.419Z,99406.50
2023-03-30T13:57:20.705Z,99421.00
2023-03-30T14:02:23.782Z,99434.50
2023-03-30T14:07:25.628Z,99424.53
2023-03-30T14:12:27.357Z,99417.91
2023-03-30T14:17:29.151Z,99417.16
2023-03-30T14:22:32.538Z,99405.28
2023-03-30T14:27:40.041Z,99401.25
2023-03-30T14:32:41.910Z,99396.38
2023-03-30T14:37:51.659Z,99389.78
2023-03-30T14:42:53.994Z,99386.63
2023-03-30T14:47:56.463Z,99375.78
2023-03-30T14:52:58.695Z,99396.75
2023-03-30T14:58:01.588Z,99389.16
2023-03-30T15:03:05.082Z,99368.84
2023-03-30T15:08:13.135Z,99397.38
2023-03-30T15:13:23.257Z,99361.22
2023-03-30T15:18:29.898Z,99349.47
2023-03-30T15:23:36.616Z,99346.00
2023-03-30T15:28:51.485Z,99354.38
2023-03-30T15:33:58.067Z,99368.63
2023-03-30T15:39:20.224Z,99377.88
2023-03-30T15:44:22.678Z,99398.09
2023-03-30T15:49:43.731Z,99425.00
2023-03-30T15:54:52.876Z,99406.75
2023-03-30T16:00:02.383Z,99428.66
2023-03-30T16:05:16.726Z,99414.38
2023-03-30T16:10:21.734Z,99432.88
2023-03-30T16:15:31.189Z,99467.44
2023-03-30T16:20:36.583Z,99475.84
2023-03-30T16:30:48.227Z,99462.50
2023-03-30T16:35:50.054Z,99388.34
2023-03-30T16:40:55.964Z,99454.16
2023-03-30T16:45:57.937Z,99469.34
2023-03-30T16:50:59.949Z,99471.91
2023-03-30T16:56:01.873Z,99479.53
2023-03-30T17:01:13.675Z,99479.53
2023-03-30T17:06:17.220Z,99509.81
2023-03-30T17:11:18.899Z,99504.78
2023-03-30T17:16:22.177Z,99503.97
2023-03-30T17:21:24.115Z,99509.88
2023-03-30T17:26:26.511Z,99519.19
2023-03-30T17:31:28.261Z,99520.88
2023-03-30T17:36:30.212Z,99518.34
2023-03-30T17:41:33.735Z,99525.09
2023-03-30T17:46:35.682Z,99516.69
2023-03-30T17:51:37.689Z,99507.47
2023-03-30T17:56:39.339Z,99502.41
2023-03-30T18:01:41.093Z,99494.72
2023-03-30T18:06:52.564Z,99480.38
2023-03-30T18:12:10.324Z,99457.59
2023-03-30T18:17:15.039Z,99455.91
2023-03-30T18:22:16.655Z,99455.84
2023-03-30T18:27:18.606Z,99476.06
2023-03-30T18:32:20.665Z,99464.25
2023-03-30T18:37:22.316Z,99465.91
2023-03-30T18:42:27.284Z,99489.47
2023-03-30T18:47:29.306Z,99485.28
2023-03-30T18:52:31.628Z,99451.59
2023-03-30T18:57:33.305Z,99446.47
2023-03-30T19:02:34.918Z,99439.78
2023-03-30T19:07:36.583Z,99434.72
2023-03-30T19:12:38.588Z,99433.03
2023-03-30T19:17:40.567Z,99438.97
2023-03-30T19:22:42.238Z,99442.31
2023-03-30T19:27:59.191Z,99443.94
2023-03-30T19:33:06.799Z,99428.00
2023-03-30T19:38:09.258Z,99436.47
2023-03-30T19:43:11.380Z,99437.28
2023-03-30T19:48:13.095Z,99442.41
2023-03-30T19:53:14.992Z,99455.06
2023-03-30T19:58:16.703Z,99474.44
2023-03-30T20:03:18.342Z,99491.31
2023-03-30T20:08:24.397Z,99496.41
2023-03-30T20:13:27.375Z,99491.31
2023-03-30T20:19:02.657Z,99491.34
2023-03-30T20:24:04.801Z,99490.47
2023-03-30T20:29:06.552Z,99483.75
2023-03-30T20:34:33.803Z,99483.81
2023-03-30T20:39:37.870Z,99489.75
2023-03-30T20:44:41.850Z,99502.38
2023-03-30T20:49:44.732Z,99503.28
2023-03-30T20:54:46.487Z,99496.50
2023-03-30T20:59:49.245Z,99504.06
2023-03-30T21:04:53.129Z,99504.94
2023-03-30T21:09:55.083Z,99504.97
2023-03-30T21:14:56.922Z,99533.56
2023-03-30T21:19:58.713Z,99513.34
2023-03-30T21:25:00.464Z,99507.44
2023-03-30T21:30:02.132Z,99496.44
2023-03-30T21:35:04.060Z,99506.47
2023-03-30T21:40:08.673Z,99482.94
2023-03-30T21:45:12.090Z,99477.06
2023-03-30T21:50:13.716Z,99477.03
2023-03-30T21:55:15.940Z,99474.50
2023-03-30T22:00:17.859Z,99474.50
2023-03-30T22:05:19.554Z,99471.16
2023-03-30T22:10:21.457Z,99486.34
2023-03-30T22:15:23.039Z,99508.22
2023-03-30T22:20:24.657Z,99499.84
2023-03-30T22:25:26.744Z,99496.50
2023-03-30T22:30:29.089Z,99493.19
2023-03-30T22:35:31.568Z,99494.09
2023-03-30T22:40:35.712Z,99489.06
2023-03-30T22:45:38.017Z,99495.81
2023-03-30T22:50:39.620Z,99493.28
2023-03-30T22:55:41.512Z,99489.94
2023-03-30T23:00:43.147Z,99488.25
2023-03-30T23:05:51.771Z,99481.53
2023-03-30T23:10:53.961Z,99475.69
2023-03-30T23:15:56.185Z,99473.19
2023-03-30T23:20:57.997Z,99459.75
2023-03-30T23:26:02.908Z,99459.75
2023-03-30T23:31:13.067Z,99448.00
2023-03-30T23:36:17.017Z,99453.03
2023-03-30T23:41:20.356Z,99473.19
2023-03-30T23:46:21.955Z,99472.34
2023-03-30T23:51:23.631Z,99464.75
2023-03-30T23:56:27.665Z,99459.72
